Map

Track Data

SID SEASON NUMBER BASIN SUBBASIN NAME ISO_TIME NATURE LAT LON WMO_WIND WMO_PRES WMO_AGENCY TRACK_TYPE DIST2LAND LANDFALL IFLAG USA_AGENCY USA_ATCF_ID USA_LAT USA_LON USA_RECORD USA_STATUS USA_WIND USA_PRES USA_SSHS USA_R34_NE USA_R34_SE USA_R34_SW USA_R34_NW USA_R50_NE USA_R50_SE USA_R50_SW USA_R50_NW USA_R64_NE USA_R64_SE USA_R64_SW USA_R64_NW USA_POCI USA_ROCI USA_RMW USA_EYE TOKYO_LAT TOKYO_LON TOKYO_GRADE TOKYO_WIND TOKYO_PRES TOKYO_R50_DIR TOKYO_R50_LONG TOKYO_R50_SHORT TOKYO_R30_DIR TOKYO_R30_LONG TOKYO_R30_SHORT TOKYO_LAND CMA_LAT CMA_LON CMA_CAT CMA_WIND CMA_PRES HKO_LAT HKO_LON HKO_CAT HKO_WIND HKO_PRES NEWDELHI_LAT NEWDELHI_LON NEWDELHI_GRADE NEWDELHI_WIND NEWDELHI_PRES NEWDELHI_CI NEWDELHI_DP NEWDELHI_POCI REUNION_LAT REUNION_LON REUNION_TYPE REUNION_WIND REUNION_PRES REUNION_TNUM REUNION_CI REUNION_RMW REUNION_R34_NE REUNION_R34_SE REUNION_R34_SW REUNION_R34_NW REUNION_R50_NE REUNION_R50_SE REUNION_R50_SW REUNION_R50_NW REUNION_R64_NE REUNION_R64_SE REUNION_R64_SW REUNION_R64_NW BOM_LAT BOM_LON BOM_TYPE BOM_WIND BOM_PRES BOM_TNUM BOM_CI BOM_RMW BOM_R34_NE BOM_R34_SE BOM_R34_SW BOM_R34_NW BOM_R50_NE BOM_R50_SE BOM_R50_SW BOM_R50_NW BOM_R64_NE BOM_R64_SE BOM_R64_SW BOM_R64_NW BOM_ROCI BOM_POCI BOM_EYE BOM_POS_METHOD BOM_PRES_METHOD NADI_LAT NADI_LON NADI_CAT NADI_WIND NADI_PRES WELLINGTON_LAT WELLINGTON_LON WELLINGTON_WIND WELLINGTON_PRES DS824_LAT DS824_LON DS824_STAGE DS824_WIND DS824_PRES TD9636_LAT TD9636_LON TD9636_STAGE TD9636_WIND TD9636_PRES TD9635_LAT TD9635_LON TD9635_WIND TD9635_PRES TD9635_ROCI NEUMANN_LAT NEUMANN_LON NEUMANN_CLASS NEUMANN_WIND NEUMANN_PRES MLC_LAT MLC_LON MLC_CLASS MLC_WIND MLC_PRES USA_GUST BOM_GUST BOM_GUST_PER REUNION_GUST REUNION_GUST_PER USA_SEAHGT USA_SEARAD_NE USA_SEARAD_SE USA_SEARAD_SW USA_SEARAD_NW STORM_SPEED STORM_DIR
1984231N33295 1984 64 NA NA NOT_NAMED 1984-08-18 06:00:00 SS 33.0000 -65.0000 25 1005 hurdat_atl main 1010 1010 O_____________ hurdat_atl AL051984 33.0000 -65.0000 SD 25 1005 -2 19 60
1984231N33295 1984 64 NA NA NOT_NAMED 1984-08-18 09:00:00 SS 33.4616 -64.0422 main 1053 1052 P_____________ AL051984 33.4616 -64.0422 SD 25 1004 -2 18 60
1984231N33295 1984 64 NA NA NOT_NAMED 1984-08-18 12:00:00 SS 33.9000 -63.1000 25 1004 hurdat_atl main 1057 1056 O_____________ hurdat_atl AL051984 33.9000 -63.1000 SD 25 1004 -2 18 61
1984231N33295 1984 64 NA NA NOT_NAMED 1984-08-18 15:00:00 SS 34.3067 -62.1913 main 1058 1035 P_____________ AL051984 34.3067 -62.1913 SD 27 1003 -2 17 62
1984231N33295 1984 64 NA NA NOT_NAMED 1984-08-18 18:00:00 SS 34.7000 -61.3000 30 1003 hurdat_atl main 1037 1024 O_____________ hurdat_atl AL051984 34.7000 -61.3000 SD 30 1003 -2 17 62
1984231N33295 1984 64 NA NA NOT_NAMED 1984-08-18 21:00:00 SS 35.0848 -60.3765 main 1024 1014 P_____________ AL051984 35.0848 -60.3765 SD 30 1002 -2 17 61
1984231N33295 1984 64 NA NA NOT_NAMED 1984-08-19 00:00:00 SS 35.5000 -59.5000 30 1002 hurdat_atl main 1018 1006 O_____________ hurdat_atl AL051984 35.5000 -59.5000 SD 30 1002 -2 16 57
1984231N33295 1984 64 NA NA NOT_NAMED 1984-08-19 03:00:00 SS 35.9465 -58.7328 main 1015 993 P_____________ AL051984 35.9465 -58.7328 SD 30 1001 -2 16 51
1984231N33295 1984 64 NA NA NOT_NAMED 1984-08-19 06:00:00 SS 36.5000 -58.0000 30 1001 hurdat_atl main 994 944 O_____________ hurdat_atl AL051984 36.5000 -58.0000 SD 30 1001 -2 18 44
1984231N33295 1984 64 NA NA NOT_NAMED 1984-08-19 09:00:00 SS 37.2047 -57.2070 main 947 890 P_____________ AL051984 37.2047 -57.2070 SD 32 1000 -2 20 40
1984231N33295 1984 64 NA NA NOT_NAMED 1984-08-19 12:00:00 SS 38.0000 -56.4000 35 1000 hurdat_atl main 890 848 O_____________ hurdat_atl AL051984 38.0000 -56.4000 SS 35 1000 -2 20 39
1984231N33295 1984 64 NA NA NOT_NAMED 1984-08-19 15:00:00 SS 38.7920 -55.5985 main 843 784 P_____________ AL051984 38.7920 -55.5985 SS 35 1000 -2 20 38
1984231N33295 1984 64 NA NA NOT_NAMED 1984-08-19 18:00:00 SS 39.6000 -54.8000 35 1000 hurdat_atl main 784 690 O_____________ hurdat_atl AL051984 39.6000 -54.8000 SS 35 1000 -2 20 36
1984231N33295 1984 64 NA NA NOT_NAMED 1984-08-19 21:00:00 SS 40.4205 -54.0570 main 690 600 P_____________ AL051984 40.4205 -54.0570 SS 37 1000 -2 20 37
1984231N33295 1984 64 NA NA NOT_NAMED 1984-08-20 00:00:00 SS 41.2000 -53.2000 40 1000 hurdat_atl main 600 538 O_____________ hurdat_atl AL051984 41.2000 -53.2000 SS 40 1000 -2 21 46
1984231N33295 1984 64 NA NA NOT_NAMED 1984-08-20 03:00:00 SS 41.8802 -52.0661 main 529 490 P_____________ AL051984 41.8802 -52.0661 SS 42 1000 -2 22 54
1984231N33295 1984 64 NA NA NOT_NAMED 1984-08-20 06:00:00 SS 42.5000 -50.8000 45 1000 hurdat_atl main 493 480 O_____________ hurdat_atl AL051984 42.5000 -50.8000 SS 45 1000 -2 22 57
1984231N33295 1984 64 NA NA NOT_NAMED 1984-08-20 09:00:00 SS 43.0919 -49.5394 main 485 481 P_____________ AL051984 43.0919 -49.5394 SS 47 1000 -2 22 57
1984231N33295 1984 64 NA NA NOT_NAMED 1984-08-20 12:00:00 SS 43.7000 -48.3000 50 1001 hurdat_atl main 500 498 O_____________ hurdat_atl AL051984 43.7000 -48.3000 SS 50 1001 -2 22 54
1984231N33295 1984 64 NA NA NOT_NAMED 1984-08-20 15:00:00 SS 44.3615 -47.1098 main 529 529 P_____________ AL051984 44.3615 -47.1098 SS 50 1001 -2 22 50
1984231N33295 1984 64 NA NA NOT_NAMED 1984-08-20 18:00:00 SS 45.1000 -46.0000 50 1002 hurdat_atl main 570 570 O_____________ hurdat_atl AL051984 45.1000 -46.0000 SS 50 1002 -2 22 42
1984231N33295 1984 64 NA NA NOT_NAMED 1984-08-20 21:00:00 SS 45.9690 -45.0423 main 599 599 P_____________ AL051984 45.9690 -45.0423 SS 47 1003 -2 22 39
1984231N33295 1984 64 NA NA NOT_NAMED 1984-08-21 00:00:00 SS 46.8000 -44.0000 45 1004 hurdat_atl main 651 651 O_____________ hurdat_atl AL051984 46.8000 -44.0000 SS 45 1004 -2 22 48
1984231N33295 1984 64 NA NA NOT_NAMED 1984-08-21 03:00:00 SS 47.4323 -42.6315 main 748 747 P_____________ AL051984 47.4323 -42.6315 SS 42 1005 -2 22 61
1984231N33295 1984 64 NA NA NOT_NAMED 1984-08-21 06:00:00 SS 47.9000 -41.1000 40 1006 hurdat_atl main 857 857 O_____________ hurdat_atl AL051984 47.9000 -41.1000 SS 40 1006 -2 22 69
1984231N33295 1984 64 NA NA NOT_NAMED 1984-08-21 09:00:00 SS 48.2383 -39.5494 main 975 975 P_____________ AL051984 48.2383 -39.5494 SS 35 1007 -2 21 74
1984231N33295 1984 64 NA NA NOT_NAMED 1984-08-21 12:00:00 SS 48.5000 -38.0000 30 1008 hurdat_atl main 1085 O_____________ hurdat_atl AL051984 48.5000 -38.0000 SD 30 1008 -2 21 76

About IBTrACS Database

This database is a web-friendly format of International Best Track Archive for Climate Stewardship (IBTrACS), a global best track data archive curated by NOAA dating back to 1842.

Updated: 2021-11-26